Time;durP1;ratioP1;P1;durP2;ratioP2;P2;SDS_P1;SDS_P2;PMS_P1;PMS_P2;Temp;Humidity;BMP_temperature;BMP_pressure;BME280_temperature;BME280_humidity;BME280_pressure;Samples;Min_cycle;Max_cycle;Signal;HPM_P1;HPM_P2
2023/12/11 00:01:44;;;;;;;;;2.00;2.00;;;;;-146.25;100.00;57879.81;5107792;27;45489;-73
2023/12/11 00:04:13;;;;;;;;;0.00;0.00;;;;;-146.25;100.00;57879.81;5109886;27;45274;-73
2023/12/11 00:06:39;;;;;;;;;1.00;0.33;;;;;-146.25;100.00;57879.81;5111906;27;46088;-73
2023/12/11 00:09:05;;;;;;;;;0.00;0.00;;;;;-146.25;100.00;57879.81;5119394;27;45437;-74
2023/12/11 00:11:30;;;;;;;;;0.00;0.00;;;;;-146.25;100.00;57879.81;5119786;27;45507;-74
2023/12/11 00:13:56;;;;;;;;;1.00;1.00;;;;;-146.25;100.00;57879.81;5119921;27;45521;-74
2023/12/11 00:16:22;;;;;;;;;0.00;0.00;;;;;-146.25;100.00;57879.81;5119457;27;45418;-75
2023/12/11 00:18:48;;;;;;;;;0.00;0.00;;;;;-146.25;100.00;57879.81;5119433;27;45749;-75
2023/12/11 00:21:15;;;;;;;;;1.00;0.00;;;;;-146.25;100.00;57879.81;5101057;27;45263;-74
2023/12/11 00:23:41;;;;;;;;;0.00;0.00;;;;;-146.25;100.00;57879.81;5119982;27;45444;-74
2023/12/11 00:26:08;;;;;;;;;0.00;0.00;;;;;-146.25;100.00;57879.81;5119806;27;46528;-74
2023/12/11 00:28:34;;;;;;;;;0.00;0.00;;;;;-146.25;100.00;57879.81;5119371;27;45358;-74
2023/12/11 00:31:01;;;;;;;;;0.33;0.33;;;;;-146.25;100.00;57879.81;5119064;27;45304;-74
2023/12/11 00:33:27;;;;;;;;;0.00;0.00;;;;;-146.25;100.00;57879.81;5119351;27;45406;-74
2023/12/11 00:35:52;;;;;;;;;0.00;0.00;;;;;-146.25;100.00;57879.81;5119326;27;45355;-74
2023/12/11 00:38:18;;;;;;;;;0.00;0.00;;;;;-146.25;100.00;57879.81;5119336;27;45377;-75
2023/12/11 00:40:45;;;;;;;;;0.33;0.00;;;;;-146.25;100.00;57879.81;5119248;27;45480;-74
2023/12/11 00:43:11;;;;;;;;;1.00;1.00;;;;;-146.25;100.00;57879.81;5119857;27;45430;-74
2023/12/11 00:45:36;;;;;;;;;0.00;0.00;;;;;-146.25;100.00;57879.81;5118918;27;46148;-74
2023/12/11 00:48:02;;;;;;;;;0.00;0.00;;;;;-146.25;100.00;57879.81;5119034;27;45203;-74
2023/12/11 00:50:28;;;;;;;;;2.00;1.00;;;;;-146.25;100.00;57879.81;5118640;27;45488;-75
2023/12/11 00:52:53;;;;;;;;;1.00;1.00;;;;;-146.25;100.00;57879.81;5119155;27;45542;-75
2023/12/11 00:55:19;;;;;;;;;0.00;0.00;;;;;-146.25;100.00;57879.81;5118848;27;46092;-74
2023/12/11 00:57:45;;;;;;;;;0.00;0.00;;;;;-146.25;100.00;57879.81;5119022;27;45468;-75
2023/12/11 01:00:12;;;;;;;;;0.00;0.00;;;;;-146.25;100.00;57879.81;5119062;27;45328;-74
2023/12/11 01:02:38;;;;;;;;;0.00;0.00;;;;;-146.25;100.00;57879.81;5119208;27;45543;-74
2023/12/11 01:05:04;;;;;;;;;0.00;0.00;;;;;-146.25;100.00;57879.81;5118632;27;45504;-74
2023/12/11 01:07:30;;;;;;;;;0.00;0.00;;;;;-146.25;100.00;57879.81;5118928;27;45388;-74
2023/12/11 01:09:55;;;;;;;;;0.00;0.00;;;;;-146.25;100.00;57879.81;5118711;27;45451;-75
2023/12/11 01:12:21;;;;;;;;;0.00;0.00;;;;;-146.25;100.00;57879.81;5119102;27;45446;-75
2023/12/11 01:14:46;;;;;;;;;0.00;0.00;;;;;-146.25;100.00;57879.81;5118359;27;45434;-74
2023/12/11 01:17:12;;;;;;;;;0.00;0.00;;;;;-146.25;100.00;57879.81;5119009;27;45328;-74
2023/12/11 01:19:38;;;;;;;;;0.00;0.00;;;;;-146.25;100.00;57879.81;5118723;27;45296;-74
2023/12/11 01:22:03;;;;;;;;;0.00;0.00;;;;;-146.25;100.00;57879.81;5118737;27;45307;-75
2023/12/11 01:24:29;;;;;;;;;0.00;0.00;;;;;-146.25;100.00;57879.81;5118489;27;46403;-75
2023/12/11 01:26:54;;;;;;;;;0.00;0.00;;;;;-146.25;100.00;57879.81;5118624;27;45587;-74
2023/12/11 01:29:20;;;;;;;;;0.00;0.00;;;;;-146.25;100.00;57879.81;5118801;27;45382;-74
2023/12/11 01:31:46;;;;;;;;;0.67;0.00;;;;;-146.25;100.00;57879.81;5119217;27;45352;-74
2023/12/11 01:34:11;;;;;;;;;0.00;0.00;;;;;-146.25;100.00;57879.81;5118880;27;45255;-74
2023/12/11 01:36:37;;;;;;;;;0.00;0.00;;;;;-146.25;100.00;57879.81;5118397;27;45530;-74
2023/12/11 01:39:03;;;;;;;;;0.00;0.00;;;;;-146.25;100.00;57879.81;5118459;27;45481;-74
2023/12/11 01:41:28;;;;;;;;;0.00;0.00;;;;;-146.25;100.00;57879.81;5118709;27;45410;-74
2023/12/11 01:43:56;;;;;;;;;0.00;0.00;;;;;-146.25;100.00;57879.81;5118079;27;45458;-74
2023/12/11 01:46:23;;;;;;;;;0.00;0.00;;;;;-146.25;100.00;57879.81;5118328;27;45454;-75
2023/12/11 01:48:51;;;;;;;;;0.00;0.00;;;;;-146.25;100.00;57879.81;5118241;27;45269;-74
2023/12/11 01:51:18;;;;;;;;;0.67;0.00;;;;;-146.25;100.00;57879.81;5118680;27;45211;-74
2023/12/11 01:53:48;;;;;;;;;0.00;0.00;;;;;-146.25;100.00;57879.81;5118368;27;46248;-74
2023/12/11 01:56:17;;;;;;;;;0.00;0.00;;;;;-146.25;100.00;57879.81;5118386;27;45482;-74
2023/12/11 01:58:43;;;;;;;;;0.00;0.00;;;;;-146.25;100.00;57879.81;5118532;27;45392;-75
2023/12/11 02:01:10;;;;;;;;;0.00;0.00;;;;;-146.25;100.00;57879.81;5118166;27;45333;-75
2023/12/11 02:03:37;;;;;;;;;0.00;0.00;;;;;-146.25;100.00;57879.81;5119423;27;45586;-73
2023/12/11 02:06:03;;;;;;;;;0.00;0.00;;;;;-146.25;100.00;57879.81;5121458;27;45429;-75
2023/12/11 02:08:29;;;;;;;;;0.00;0.00;;;;;-146.25;100.00;57879.81;5121626;27;45471;-75
2023/12/11 02:10:55;;;;;;;;;0.00;0.00;;;;;-146.25;100.00;57879.81;5121825;27;45295;-74
2023/12/11 02:13:20;;;;;;;;;0.00;0.00;;;;;-146.25;100.00;57879.81;5121509;27;45987;-75
2023/12/11 02:15:47;;;;;;;;;0.00;0.00;;;;;-146.25;100.00;57879.81;5121830;27;45299;-75
2023/12/11 02:18:14;;;;;;;;;0.00;0.00;;;;;-146.25;100.00;57879.81;5121522;27;45480;-74
2023/12/11 02:20:41;;;;;;;;;0.00;0.00;;;;;-146.25;100.00;57879.81;5121552;27;45510;-74
2023/12/11 02:23:28;;;;;;;;;0.00;0.00;;;;;-146.25;100.00;57879.81;5121241;27;46088;-74
2023/12/11 02:26:12;;;;;;;;;0.00;0.00;;;;;-146.25;100.00;57879.81;5121460;27;45447;-74
2023/12/11 02:28:38;;;;;;;;;0.00;0.00;;;;;-146.25;100.00;57879.81;5121276;27;45500;-74
2023/12/11 02:31:04;;;;;;;;;0.00;0.00;;;;;-146.25;100.00;57879.81;5121359;27;45402;-74
2023/12/11 02:33:29;;;;;;;;;0.00;0.00;;;;;-146.25;100.00;57879.81;5121447;27;45529;-75
2023/12/11 02:35:55;;;;;;;;;0.00;0.00;;;;;-146.25;100.00;57879.81;5121182;27;45475;-74
2023/12/11 02:38:21;;;;;;;;;0.67;0.00;;;;;-146.25;100.00;57879.81;5121394;27;45273;-74
2023/12/11 02:40:46;;;;;;;;;0.00;0.00;;;;;-146.25;100.00;57879.81;5121553;27;45319;-74
2023/12/11 02:43:12;;;;;;;;;0.00;0.00;;;;;-146.25;100.00;57879.81;5120130;27;45985;-73
2023/12/11 02:45:38;;;;;;;;;0.00;0.00;;;;;-146.25;100.00;57879.81;5119749;27;45377;-74
2023/12/11 02:48:04;;;;;;;;;0.00;0.00;;;;;-146.25;100.00;57879.81;5121383;27;45432;-74
2023/12/11 02:50:30;;;;;;;;;0.00;0.00;;;;;-146.25;100.00;57879.81;5100842;27;45410;-74
2023/12/11 02:53:00;;;;;;;;;0.00;0.00;;;;;-146.25;100.00;57879.81;5099764;27;46322;-74
2023/12/11 02:55:26;;;;;;;;;0.00;0.00;;;;;-146.25;100.00;57879.81;5099509;27;45487;-74
2023/12/11 02:57:57;;;;;;;;;0.00;0.00;;;;;-146.25;100.00;57879.81;5081413;27;45293;-73
2023/12/11 03:00:23;;;;;;;;;0.00;0.00;;;;;-146.25;100.00;57879.81;5100103;27;45339;-74
2023/12/11 03:02:48;;;;;;;;;0.00;0.00;;;;;-146.25;100.00;57879.81;5100039;27;45989;-75
2023/12/11 03:05:14;;;;;;;;;0.00;0.00;;;;;-146.25;100.00;57879.81;5099434;27;45414;-73
2023/12/11 03:07:40;;;;;;;;;0.00;0.00;;;;;-146.25;100.00;57879.81;5100085;27;45357;-73
2023/12/11 03:10:06;;;;;;;;;0.00;0.00;;;;;-146.25;100.00;57879.81;5100313;27;45311;-74
2023/12/11 03:12:32;;;;;;;;;0.00;0.00;;;;;-146.25;100.00;57879.81;5099802;27;45501;-74
2023/12/11 03:14:57;;;;;;;;;0.00;0.00;;;;;-146.25;100.00;57879.81;5099295;27;45744;-74
2023/12/11 03:17:23;;;;;;;;;0.00;0.00;;;;;-146.25;100.00;57879.81;5100111;27;45465;-75
2023/12/11 03:19:48;;;;;;;;;0.00;0.00;;;;;-146.25;100.00;57879.81;5100602;27;45342;-75
2023/12/11 03:22:14;;;;;;;;;0.00;0.00;;;;;-146.25;100.00;57879.81;5099851;27;45619;-74
2023/12/11 03:24:40;;;;;;;;;0.00;0.00;;;;;-146.25;100.00;57879.81;5099846;27;45419;-75
2023/12/11 03:27:05;;;;;;;;;0.00;0.00;;;;;-146.25;100.00;57879.81;5100097;27;45476;-75
2023/12/11 03:29:31;;;;;;;;;0.00;0.00;;;;;-146.25;100.00;57879.81;5100114;27;45492;-74
2023/12/11 03:31:56;;;;;;;;;0.33;0.00;;;;;-146.25;100.00;57879.81;5099726;27;45375;-74
2023/12/11 03:34:22;;;;;;;;;0.00;0.00;;;;;-146.25;100.00;57879.81;5100113;27;45370;-74
2023/12/11 03:36:48;;;;;;;;;0.00;0.00;;;;;-146.25;100.00;57879.81;5100265;27;45857;-74
2023/12/11 03:39:13;;;;;;;;;0.00;0.00;;;;;-146.25;100.00;57879.81;5099729;27;45492;-74
2023/12/11 03:41:39;;;;;;;;;0.00;0.00;;;;;-146.25;100.00;57879.81;5099379;27;45374;-74
2023/12/11 03:44:05;;;;;;;;;0.00;0.00;;;;;-146.25;100.00;57879.81;5099611;27;45188;-74
2023/12/11 03:46:30;;;;;;;;;0.00;0.00;;;;;-146.25;100.00;57879.81;5099759;27;45276;-74
2023/12/11 03:48:56;;;;;;;;;0.00;0.00;;;;;-146.25;100.00;57879.81;5099904;27;45303;-75
2023/12/11 03:51:22;;;;;;;;;0.00;0.00;;;;;-146.25;100.00;57879.81;5099739;27;45991;-74
2023/12/11 03:53:47;;;;;;;;;0.00;0.00;;;;;-146.25;100.00;57879.81;5099407;27;45326;-75
2023/12/11 03:56:13;;;;;;;;;0.00;0.00;;;;;-146.25;100.00;57879.81;5099631;27;45156;-75
2023/12/11 03:58:38;;;;;;;;;0.00;0.00;;;;;-146.25;100.00;57879.81;5099856;27;45370;-75
2023/12/11 04:01:04;;;;;;;;;0.00;0.00;;;;;-146.25;100.00;57879.81;5099170;27;46071;-75
2023/12/11 04:03:31;;;;;;;;;0.00;0.00;;;;;-146.25;100.00;57879.81;5099283;27;45421;-74
2023/12/11 04:05:57;;;;;;;;;0.00;0.00;;;;;-146.25;100.00;57879.81;5099153;27;45495;-75
2023/12/11 04:08:23;;;;;;;;;0.00;0.00;;;;;-146.25;100.00;57879.81;5099554;27;45720;-74
2023/12/11 04:10:48;;;;;;;;;0.00;0.00;;;;;-146.25;100.00;57879.81;5098866;27;45871;-75
2023/12/11 04:13:14;;;;;;;;;0.00;0.00;;;;;-146.25;100.00;57879.81;5099088;27;45288;-74
2023/12/11 04:15:40;;;;;;;;;0.00;0.00;;;;;-146.25;100.00;57879.81;5099284;27;45269;-75
2023/12/11 04:18:05;;;;;;;;;0.00;0.00;;;;;-146.25;100.00;57879.81;5099270;27;45512;-75
2023/12/11 04:20:31;;;;;;;;;0.00;0.00;;;;;-146.25;100.00;57879.81;5098825;27;46142;-75
2023/12/11 04:22:57;;;;;;;;;1.00;0.00;;;;;-146.25;100.00;57879.81;5099041;27;45489;-75
2023/12/11 04:25:22;;;;;;;;;0.00;0.00;;;;;-146.25;100.00;57879.81;5098480;27;45377;-74
2023/12/11 04:27:48;;;;;;;;;0.00;0.00;;;;;-146.25;100.00;57879.81;5098967;27;45405;-75
2023/12/11 04:30:14;;;;;;;;;0.00;0.00;;;;;-146.25;100.00;57879.81;5080202;27;45549;-74
2023/12/11 04:32:39;;;;;;;;;0.00;0.00;;;;;-146.25;100.00;57879.81;5098854;27;45357;-74
2023/12/11 04:35:05;;;;;;;;;0.00;0.00;;;;;-146.25;100.00;57879.81;5098799;27;45560;-74
2023/12/11 04:37:32;;;;;;;;;0.00;0.00;;;;;-146.25;100.00;57879.81;5099005;27;46111;-74
2023/12/11 04:39:57;;;;;;;;;0.00;0.00;;;;;-146.25;100.00;57879.81;5098210;27;45449;-74
2023/12/11 04:42:23;;;;;;;;;0.00;0.00;;;;;-146.25;100.00;57879.81;5098732;27;45382;-73
2023/12/11 04:44:49;;;;;;;;;0.00;0.00;;;;;-146.25;100.00;57879.81;5098803;27;45332;-73
2023/12/11 04:47:15;;;;;;;;;0.00;0.00;;;;;-146.25;100.00;57879.81;5098841;27;45465;-74
2023/12/11 04:49:43;;;;;;;;;0.00;0.00;;;;;-146.25;100.00;57879.81;5098498;27;46222;-74
2023/12/11 04:52:09;;;;;;;;;1.00;0.00;;;;;-146.25;100.00;57879.81;5098224;27;45548;-73
2023/12/11 04:54:35;;;;;;;;;0.00;0.00;;;;;-146.25;100.00;57879.81;5098366;27;45520;-73
2023/12/11 04:57:01;;;;;;;;;0.67;0.67;;;;;-146.25;100.00;57879.81;5098712;27;45498;-73
2023/12/11 04:59:27;;;;;;;;;0.00;0.00;;;;;-146.25;100.00;57879.81;5098770;27;46046;-73
2023/12/11 05:01:53;;;;;;;;;0.00;0.00;;;;;-146.25;100.00;57879.81;5098484;27;45620;-74
2023/12/11 05:04:19;;;;;;;;;0.00;0.00;;;;;-146.25;100.00;57879.81;5098511;27;45353;-74
2023/12/11 05:06:45;;;;;;;;;0.00;0.00;;;;;-146.25;100.00;57879.81;5098429;27;45454;-74
2023/12/11 05:09:10;;;;;;;;;0.00;0.00;;;;;-146.25;100.00;57879.81;5097768;27;46211;-74
2023/12/11 05:11:36;;;;;;;;;0.00;0.00;;;;;-146.25;100.00;57879.81;5098131;27;45473;-73
2023/12/11 05:14:02;;;;;;;;;0.67;0.00;;;;;-146.25;100.00;57879.81;5098201;27;45370;-74
2023/12/11 05:16:28;;;;;;;;;0.33;0.00;;;;;-146.25;100.00;57879.81;5098755;27;45495;-74
2023/12/11 05:18:53;;;;;;;;;0.00;0.00;;;;;-146.25;100.00;57879.81;5098123;27;46652;-74
2023/12/11 05:21:20;;;;;;;;;0.00;0.00;;;;;-146.25;100.00;57879.81;5097885;27;45371;-73
2023/12/11 05:23:46;;;;;;;;;0.00;0.00;;;;;-146.25;100.00;57879.81;5103234;27;45467;-73
2023/12/11 05:26:18;;;;;;;;;0.00;0.00;;;;;-146.25;100.00;57879.81;5106889;27;45416;-73
2023/12/11 05:28:44;;;;;;;;;0.00;0.00;;;;;-146.25;100.00;57879.81;5106696;27;46140;-73
2023/12/11 05:31:09;;;;;;;;;0.00;0.00;;;;;-146.25;100.00;57879.81;5108561;27;45421;-73
2023/12/11 05:33:35;;;;;;;;;0.00;0.00;;;;;-146.25;100.00;57879.81;5107247;27;45417;-74
2023/12/11 05:36:01;;;;;;;;;0.00;0.00;;;;;-146.25;100.00;57879.81;5107346;27;45292;-75
2023/12/11 05:38:26;;;;;;;;;0.00;0.00;;;;;-146.25;100.00;57879.81;5108353;27;45449;-74
2023/12/11 05:40:52;;;;;;;;;0.00;0.00;;;;;-146.25;100.00;57879.81;5106481;27;45482;-74
2023/12/11 05:43:18;;;;;;;;;0.00;0.00;;;;;-146.25;100.00;57879.81;5107564;27;45336;-74
2023/12/11 05:45:44;;;;;;;;;0.00;0.00;;;;;-146.25;100.00;57879.81;5108415;27;45262;-74
2023/12/11 05:48:09;;;;;;;;;0.00;0.00;;;;;-146.25;100.00;57879.81;5105987;27;46155;-74
2023/12/11 05:50:35;;;;;;;;;0.00;0.00;;;;;-146.25;100.00;57879.81;5107634;27;45647;-73
2023/12/11 05:53:01;;;;;;;;;0.00;0.00;;;;;-146.25;100.00;57879.81;5107631;27;45651;-75
2023/12/11 05:55:27;;;;;;;;;0.00;0.00;;;;;-146.25;100.00;57879.81;5106742;27;45575;-73
2023/12/11 05:57:52;;;;;;;;;0.00;0.00;;;;;-146.25;100.00;57879.81;5107682;27;46171;-74
2023/12/11 06:00:18;;;;;;;;;1.00;0.00;;;;;-146.25;100.00;57879.81;5107086;27;45465;-74
2023/12/11 06:02:44;;;;;;;;;0.00;0.00;;;;;-146.25;100.00;57879.81;5106318;27;45573;-74
2023/12/11 06:05:10;;;;;;;;;0.00;0.00;;;;;-146.25;100.00;57879.81;5108270;27;45493;-73
2023/12/11 06:07:35;;;;;;;;;1.00;0.00;;;;;-146.25;100.00;57879.81;5106621;27;45525;-73
2023/12/11 06:10:02;;;;;;;;;0.00;0.00;;;;;-146.25;100.00;57879.81;5106703;27;45852;-73
2023/12/11 06:12:28;;;;;;;;;0.00;0.00;;;;;-146.25;100.00;57879.81;5108438;27;45260;-73
2023/12/11 06:14:54;;;;;;;;;0.00;0.00;;;;;-146.25;100.00;57879.81;5106535;27;45382;-74
2023/12/11 06:17:19;;;;;;;;;0.00;0.00;;;;;-146.25;100.00;57879.81;5106456;27;45335;-74
2023/12/11 06:19:46;;;;;;;;;2.00;1.00;;;;;-146.25;100.00;57879.81;5107846;27;45310;-74
2023/12/11 06:22:11;;;;;;;;;0.00;0.00;;;;;-146.25;100.00;57879.81;5105919;27;45258;-73
2023/12/11 06:24:40;;;;;;;;;0.67;0.00;;;;;-146.25;100.00;57879.81;5097137;27;45531;-74
2023/12/11 06:27:06;;;;;;;;;0.00;0.00;;;;;-146.25;100.00;57879.81;5107563;27;46044;-74
2023/12/11 06:29:32;;;;;;;;;0.00;0.00;;;;;-146.25;100.00;57879.81;5106014;27;45531;-73
2023/12/11 06:31:58;;;;;;;;;0.00;0.00;;;;;-146.25;100.00;57879.81;5106995;27;45696;-73
2023/12/11 06:34:23;;;;;;;;;0.00;0.00;;;;;-146.25;100.00;57879.81;5107854;27;45438;-74
2023/12/11 06:36:49;;;;;;;;;0.00;0.00;;;;;-146.25;100.00;57879.81;5105374;27;45974;-74
2023/12/11 06:39:15;;;;;;;;;0.00;0.00;;;;;-146.25;100.00;57879.81;5107037;27;45521;-73
2023/12/11 06:41:41;;;;;;;;;0.00;0.00;;;;;-146.25;100.00;57879.81;5106987;27;45440;-74
2023/12/11 06:44:08;;;;;;;;;0.00;0.00;;;;;-146.25;100.00;57879.81;5105606;27;45533;-74
2023/12/11 06:46:34;;;;;;;;;0.00;0.00;;;;;-146.25;100.00;57879.81;5106822;27;45748;-74
2023/12/11 06:49:00;;;;;;;;;0.00;0.00;;;;;-146.25;100.00;57879.81;5107590;27;45606;-74
2023/12/11 06:51:26;;;;;;;;;0.00;0.00;;;;;-146.25;100.00;57879.81;5108750;27;45575;-73
2023/12/11 06:53:58;;;;;;;;;0.00;0.00;;;;;-146.25;100.00;57879.81;5111018;27;45432;-73
2023/12/11 06:56:24;;;;;;;;;0.00;0.00;;;;;-146.25;100.00;57879.81;5110546;27;46278;-73
2023/12/11 06:58:50;;;;;;;;;0.00;0.00;;;;;-146.25;100.00;57879.81;5108620;27;45528;-74
2023/12/11 07:01:17;;;;;;;;;0.00;0.00;;;;;-146.25;100.00;57879.81;5110193;27;45296;-74
2023/12/11 07:03:44;;;;;;;;;0.00;0.00;;;;;-146.25;100.00;57879.81;5110552;27;45576;-74
2023/12/11 07:06:10;;;;;;;;;0.00;0.00;;;;;-146.25;100.00;57879.81;5108272;27;45342;-73
2023/12/11 07:08:37;;;;;;;;;0.00;0.00;;;;;-146.25;100.00;57879.81;5109717;27;45485;-74
2023/12/11 07:11:03;;;;;;;;;0.00;0.00;;;;;-146.25;100.00;57879.81;5110373;27;45600;-74
2023/12/11 07:13:31;;;;;;;;;0.00;0.00;;;;;-146.25;100.00;57879.81;5108796;27;45513;-73
2023/12/11 07:15:56;;;;;;;;;0.00;0.00;;;;;-146.25;100.00;57879.81;5109875;27;45550;-74
2023/12/11 07:18:22;;;;;;;;;0.00;0.00;;;;;-146.25;100.00;57879.81;5109617;27;45558;-74
2023/12/11 07:20:48;;;;;;;;;1.00;1.00;;;;;-146.25;100.00;57879.81;5108313;27;45326;-74
2023/12/11 07:23:14;;;;;;;;;0.00;0.00;;;;;-146.25;100.00;57879.81;5110384;27;45342;-75
2023/12/11 07:25:39;;;;;;;;;1.00;1.00;;;;;-146.25;100.00;57879.81;5109267;27;46108;-75
2023/12/11 07:28:05;;;;;;;;;0.67;0.33;;;;;-146.25;100.00;57879.81;5108767;27;45630;-73
2023/12/11 07:30:31;;;;;;;;;0.00;0.00;;;;;-146.25;100.00;57879.81;5110708;27;45223;-74
2023/12/11 07:32:57;;;;;;;;;0.00;0.00;;;;;-146.25;100.00;57879.81;5102311;27;45265;-73
2023/12/11 07:35:24;;;;;;;;;1.00;0.00;;;;;-146.25;100.00;57879.81;5107657;27;45340;-73
2023/12/11 07:37:51;;;;;;;;;0.00;0.00;;;;;-146.25;100.00;57879.81;5108516;27;45435;-74
2023/12/11 07:40:17;;;;;;;;;1.00;1.00;;;;;-146.25;100.00;57879.81;5109220;27;45451;-76
2023/12/11 07:42:43;;;;;;;;;1.00;0.00;;;;;-146.25;100.00;57879.81;5109989;27;45514;-75
2023/12/11 07:45:12;;;;;;;;;1.00;1.00;;;;;-146.25;100.00;57879.81;5089123;27;45541;-73
2023/12/11 07:47:39;;;;;;;;;4.67;3.33;;;;;-146.25;100.00;57879.81;5108834;27;45464;-73
2023/12/11 07:50:05;;;;;;;;;4.00;3.67;;;;;-146.25;100.00;57879.81;5110375;27;45509;-77
2023/12/11 07:52:31;;;;;;;;;1.67;1.67;;;;;-146.25;100.00;57879.81;5108194;27;45482;-73
2023/12/11 07:54:57;;;;;;;;;0.67;0.33;;;;;-146.25;100.00;57879.81;5108729;27;46191;-75
2023/12/11 07:57:26;;;;;;;;;0.00;0.00;;;;;-146.25;100.00;57879.81;5090837;27;45450;-74
2023/12/11 07:59:52;;;;;;;;;1.00;1.00;;;;;-146.25;100.00;57879.81;5107715;27;45390;-75
2023/12/11 08:02:18;;;;;;;;;1.00;1.00;;;;;-146.25;100.00;57879.81;5113002;27;45370;-75
2023/12/11 08:04:44;;;;;;;;;0.00;0.00;;;;;-146.25;100.00;57879.81;5119667;27;45442;-75
2023/12/11 08:07:10;;;;;;;;;1.00;1.00;;;;;-146.25;100.00;57879.81;5119676;27;45432;-76
2023/12/11 08:09:39;;;;;;;;;0.00;0.00;;;;;-146.25;100.00;57879.81;5119883;27;45472;-77
2023/12/11 08:12:05;;;;;;;;;0.00;0.00;;;;;-146.25;100.00;57879.81;5099611;27;45526;-75
2023/12/11 08:14:31;;;;;;;;;0.00;0.00;;;;;-146.25;100.00;57879.81;5098876;27;45408;-75
2023/12/11 08:16:57;;;;;;;;;0.00;0.00;;;;;-146.25;100.00;57879.81;5098848;27;45791;-75
2023/12/11 08:19:22;;;;;;;;;0.00;0.00;;;;;-146.25;100.00;57879.81;5098863;27;45254;-73
2023/12/11 08:21:48;;;;;;;;;0.00;0.00;;;;;-146.25;100.00;57879.81;5104145;27;45530;-73
2023/12/11 08:24:14;;;;;;;;;0.00;0.00;;;;;-146.25;100.00;57879.81;5108677;27;45571;-73
2023/12/11 08:26:39;;;;;;;;;0.00;0.00;;;;;-146.25;100.00;57879.81;5107357;27;45429;-75
2023/12/11 08:29:06;;;;;;;;;2.00;2.00;;;;;-146.25;100.00;57879.81;5107965;27;45443;-76
2023/12/11 08:31:32;;;;;;;;;1.33;1.00;;;;;-146.25;100.00;57879.81;5108732;27;45413;-77
2023/12/11 08:33:58;;;;;;;;;3.00;3.00;;;;;-146.25;100.00;57879.81;5114907;27;45506;-77
2023/12/11 08:36:23;;;;;;;;;2.00;2.00;;;;;-146.25;100.00;57879.81;5119158;27;45432;-76
2023/12/11 08:38:49;;;;;;;;;1.00;1.00;;;;;-146.25;100.00;57879.81;5119491;27;45313;-77
2023/12/11 08:41:15;;;;;;;;;0.67;0.67;;;;;-146.25;100.00;57879.81;5119400;27;45267;-75
2023/12/11 08:43:42;;;;;;;;;0.00;0.00;;;;;-146.25;100.00;57879.81;5118418;27;46210;-75
2023/12/11 08:46:07;;;;;;;;;0.00;0.00;;;;;-146.25;100.00;57879.81;5103873;27;45494;-74
2023/12/11 08:48:33;;;;;;;;;1.00;1.00;;;;;-146.25;100.00;57879.81;5105416;27;45489;-74
2023/12/11 08:50:59;;;;;;;;;1.00;1.00;;;;;-146.25;100.00;57879.81;5113042;27;45475;-73
2023/12/11 08:53:24;;;;;;;;;2.33;1.67;;;;;-146.25;100.00;57879.81;5118712;27;45481;-73
2023/12/11 08:55:51;;;;;;;;;4.67;3.67;;;;;-146.25;100.00;57879.81;5100067;27;45445;-73
2023/12/11 08:58:17;;;;;;;;;5.67;5.67;;;;;-146.25;100.00;57879.81;5119125;27;45619;-73
2023/12/11 09:00:43;;;;;;;;;3.33;2.67;;;;;-146.25;100.00;57879.81;5119109;27;45442;-73
2023/12/11 09:03:09;;;;;;;;;4.00;3.33;;;;;-146.25;100.00;57879.81;5118953;27;45454;-73
2023/12/11 09:05:35;;;;;;;;;1.00;1.00;;;;;-146.25;100.00;57879.81;5118632;27;45308;-73
2023/12/11 09:08:00;;;;;;;;;2.33;2.33;;;;;-146.25;100.00;57879.81;5118909;27;45483;-73
2023/12/11 09:10:26;;;;;;;;;0.00;0.00;;;;;-146.25;100.00;57879.81;5118902;27;45468;-73
2023/12/11 09:12:53;;;;;;;;;3.67;1.67;;;;;-146.25;100.00;57879.81;5099409;27;45811;-73
2023/12/11 09:15:20;;;;;;;;;0.67;0.67;;;;;-146.25;100.00;57879.81;5100027;27;45484;-74
2023/12/11 09:17:46;;;;;;;;;0.00;0.00;;;;;-146.25;100.00;57879.81;5100135;27;45612;-73
2023/12/11 09:20:12;;;;;;;;;0.00;0.00;;;;;-146.25;100.00;57879.81;5118774;27;45334;-73
2023/12/11 09:22:41;;;;;;;;;0.00;0.00;;;;;-146.25;100.00;57879.81;5118529;27;46551;-74
2023/12/11 09:25:07;;;;;;;;;0.00;0.00;;;;;-146.25;100.00;57879.81;5118760;27;45551;-73
2023/12/11 09:27:32;;;;;;;;;1.00;1.00;;;;;-146.25;100.00;57879.81;5118526;27;45206;-73
2023/12/11 09:29:58;;;;;;;;;3.33;2.00;;;;;-146.25;100.00;57879.81;5118707;27;45326;-73
2023/12/11 09:32:24;;;;;;;;;6.00;5.67;;;;;-146.25;100.00;57879.81;5115931;27;45515;-73
2023/12/11 09:34:51;;;;;;;;;8.33;8.33;;;;;-146.25;100.00;57879.81;5118121;27;45792;-73
2023/12/11 09:37:19;;;;;;;;;3.00;3.00;;;;;-146.25;100.00;57879.81;5117875;27;45394;-73
2023/12/11 09:39:47;;;;;;;;;1.67;1.67;;;;;-146.25;100.00;57879.81;5100016;27;45542;-74
2023/12/11 09:42:14;;;;;;;;;6.33;5.67;;;;;-146.25;100.00;57879.81;5117733;27;46344;-74
2023/12/11 09:44:41;;;;;;;;;3.00;3.00;;;;;-146.25;100.00;57879.81;5118534;27;45611;-72
2023/12/11 09:47:16;;;;;;;;;3.33;3.00;;;;;-146.25;100.00;57879.81;5108750;27;45872;-74
2023/12/11 09:49:43;;;;;;;;;2.00;2.00;;;;;-146.25;100.00;57879.81;5107743;27;45475;-73
2023/12/11 09:52:11;;;;;;;;;2.00;2.00;;;;;-146.25;100.00;57879.81;5106916;27;45406;-73
2023/12/11 09:54:36;;;;;;;;;1.00;1.00;;;;;-146.25;100.00;57879.81;5108429;27;45432;-78
2023/12/11 09:57:03;;;;;;;;;0.33;0.33;;;;;-146.25;100.00;57879.81;5106870;27;45342;-75
2023/12/11 09:59:30;;;;;;;;;0.67;0.67;;;;;-146.25;100.00;57879.81;5107061;27;45463;-75
2023/12/11 10:01:57;;;;;;;;;0.00;0.00;;;;;-146.25;100.00;57879.81;5106839;27;45541;-75
2023/12/11 10:04:22;;;;;;;;;0.00;0.00;;;;;-146.25;100.00;57879.81;5107315;27;45495;-76
2023/12/11 10:06:52;;;;;;;;;0.33;0.00;;;;;-146.25;100.00;57879.81;5109360;27;45981;-73
2023/12/11 10:09:35;;;;;;;;;0.33;0.33;;;;;-146.25;100.00;57879.81;5087407;27;45633;-73
2023/12/11 10:12:02;;;;;;;;;0.33;0.00;;;;;-146.25;100.00;57879.81;5106139;27;46283;-73
2023/12/11 10:14:30;;;;;;;;;1.00;0.33;;;;;-146.25;100.00;57879.81;5106869;27;45578;-74
2023/12/11 10:16:56;;;;;;;;;1.33;1.00;;;;;-146.25;100.00;57879.81;5107915;27;45389;-74
2023/12/11 10:19:32;;;;;;;;;2.00;1.33;;;;;-146.25;100.00;57879.81;5112187;27;45582;-74
2023/12/11 10:21:58;;;;;;;;;0.00;0.00;;;;;-146.25;100.00;57879.81;5117568;27;45506;-73
2023/12/11 10:24:24;;;;;;;;;0.00;0.00;;;;;-146.25;100.00;57879.81;5118932;27;45343;-74
2023/12/11 10:26:58;;;;;;;;;0.67;0.00;;;;;-146.25;100.00;57879.81;5121517;27;45410;-75
2023/12/11 10:29:30;;;;;;;;;0.00;0.00;;;;;-146.25;100.00;57879.81;5121622;27;45328;-82
2023/12/11 10:32:03;;;;;;;;;0.33;0.33;;;;;-146.25;100.00;57879.81;5121058;27;45613;-74
2023/12/11 10:34:43;;;;;;;;;1.00;1.00;;;;;-146.25;100.00;57879.81;5120965;27;45287;-74
2023/12/11 10:37:13;;;;;;;;;0.67;0.67;;;;;-146.25;100.00;57879.81;5102728;27;45413;-73
2023/12/11 10:39:54;;;;;;;;;0.00;0.00;;;;;-146.25;100.00;57879.81;5121578;27;45561;-81
2023/12/11 10:42:20;;;;;;;;;0.00;0.00;;;;;-146.25;100.00;57879.81;5120916;27;45476;-73
2023/12/11 10:44:45;;;;;;;;;0.00;0.00;;;;;-146.25;100.00;57879.81;5117814;27;45430;-73
2023/12/11 10:47:12;;;;;;;;;1.00;1.00;;;;;-146.25;100.00;57879.81;5106547;27;45302;-81
2023/12/11 10:49:39;;;;;;;;;1.00;0.50;;;;;-146.25;100.00;57879.81;5098997;27;45419;-74
2023/12/11 10:52:05;;;;;;;;;0.67;0.00;;;;;-146.25;100.00;57879.81;5098719;27;45483;-72
2023/12/11 10:54:31;;;;;;;;;0.00;0.00;;;;;-146.25;100.00;57879.81;5098091;27;45432;-75
2023/12/11 10:57:01;;;;;;;;;0.00;0.00;;;;;-146.25;100.00;57879.81;5099314;27;45440;-76
2023/12/11 10:59:29;;;;;;;;;0.00;0.00;;;;;-146.25;100.00;57879.81;5098705;27;45609;-76
2023/12/11 11:01:58;;;;;;;;;0.67;0.67;;;;;-146.25;100.00;57879.81;5098724;27;45550;-73
2023/12/11 11:04:27;;;;;;;;;1.00;0.00;;;;;-146.25;100.00;57879.81;5098562;27;45663;-74
2023/12/11 11:07:07;;;;;;;;;1.00;1.00;;;;;-146.25;100.00;57879.81;5098726;27;45726;-73